Time;durP1;ratioP1;P1;durP2;ratioP2;P2;SDS_P1;SDS_P2;PMS_P1;PMS_P2;Temp;Humidity;BMP_temperature;BMP_pressure;BME280_temperature;BME280_humidity;BME280_pressure;Samples;Min_cycle;Max_cycle;Signal;HPM_P1;HPM_P2
2021/01/09 00:01:05;;;;;;;65.80;39.27;;;;;;;4.95;65.78;100511.81;1718603;83;21358;-56
2021/01/09 00:04:13;;;;;;;43.83;26.68;;;;;;;4.95;65.75;100515.05;1718127;83;21228;-55
2021/01/09 00:07:18;;;;;;;35.58;23.35;;;;;;;4.93;65.75;100523.28;1718097;83;21713;-56
2021/01/09 00:10:23;;;;;;;30.55;20.37;;;;;;;4.93;65.79;100519.22;1718014;83;21354;-55
2021/01/09 00:13:28;;;;;;;29.27;18.87;;;;;;;4.93;65.77;100520.57;1718169;83;21405;-56
2021/01/09 00:16:34;;;;;;;26.70;18.15;;;;;;;4.92;65.71;100507.15;1718184;83;21217;-55
2021/01/09 00:19:42;;;;;;;30.32;19.00;;;;;;;4.90;65.80;100509.16;1718475;83;21375;-57
2021/01/09 00:22:49;;;;;;;27.87;18.90;;;;;;;4.89;65.82;100519.14;1718460;83;21397;-56
2021/01/09 00:25:54;;;;;;;27.60;17.27;;;;;;;4.88;65.82;100510.66;1718666;83;21371;-57
2021/01/09 00:29:00;;;;;;;29.70;19.90;;;;;;;4.89;65.83;100499.29;1718578;83;21367;-57
2021/01/09 00:32:06;;;;;;;30.25;19.15;;;;;;;4.90;65.85;100506.45;1718653;83;21189;-57
2021/01/09 00:35:14;;;;;;;28.17;19.95;;;;;;;4.90;65.84;100488.82;1718617;83;21376;-57
2021/01/09 00:38:19;;;;;;;27.25;18.30;;;;;;;4.85;65.83;100490.59;1718575;83;21228;-57
2021/01/09 00:41:38;;;;;;;26.57;17.62;;;;;;;4.84;66.13;100492.05;1718574;83;21931;-56
2021/01/09 00:44:45;;;;;;;29.45;19.02;;;;;;;4.83;66.16;100469.52;1701010;82;21761;-55
2021/01/09 00:47:49;;;;;;;26.60;17.67;;;;;;;4.85;66.21;100487.02;1711301;84;21718;-55
2021/01/09 00:50:55;;;;;;;30.43;20.27;;;;;;;4.84;66.29;100476.66;1711136;84;21374;-55
2021/01/09 00:54:01;;;;;;;26.25;17.70;;;;;;;4.82;66.29;100470.50;1711082;84;21793;-55
2021/01/09 00:57:09;;;;;;;27.42;17.32;;;;;;;4.82;66.45;100477.28;1718179;83;21292;-55
2021/01/09 01:00:15;;;;;;;29.65;19.73;;;;;;;4.83;66.42;100476.80;1718129;83;21256;-56
2021/01/09 01:03:20;;;;;;;31.60;20.20;;;;;;;4.85;66.35;100466.19;1718269;83;21303;-55
2021/01/09 01:06:31;;;;;;;40.35;23.52;;;;;;;4.84;66.24;100478.01;1718354;83;21268;-55
2021/01/09 01:09:35;;;;;;;42.62;22.58;;;;;;;4.80;66.19;100468.94;1717461;83;21267;-55
2021/01/09 01:12:41;;;;;;;38.70;20.77;;;;;;;4.78;66.34;100470.91;1691282;85;21802;-55
2021/01/09 01:15:47;;;;;;;37.98;23.20;;;;;;;4.82;66.38;100471.02;1718169;83;21376;-56
2021/01/09 01:18:52;;;;;;;33.55;19.87;;;;;;;4.85;66.46;100479.75;1718257;83;21295;-55
2021/01/09 01:21:59;;;;;;;37.25;21.15;;;;;;;4.88;66.40;100486.25;1718190;83;21257;-56
2021/01/09 01:25:04;;;;;;;30.72;19.23;;;;;;;4.90;66.19;100469.84;1718102;83;21327;-55
2021/01/09 01:28:11;;;;;;;30.95;18.50;;;;;;;4.86;65.98;100453.46;1713184;84;21423;-54
2021/01/09 01:31:18;;;;;;;28.23;18.75;;;;;;;4.82;65.99;100458.81;1713406;84;21224;-57
2021/01/09 01:34:26;;;;;;;30.72;18.85;;;;;;;4.77;65.95;100452.94;1713284;84;21382;-56
2021/01/09 01:37:31;;;;;;;27.52;17.98;;;;;;;4.70;65.91;100446.34;1713410;84;21263;-55
2021/01/09 01:40:37;;;;;;;29.60;18.82;;;;;;;4.65;66.10;100449.47;1713417;84;21365;-55
2021/01/09 01:43:43;;;;;;;27.20;18.50;;;;;;;4.65;66.20;100448.11;1713513;84;21236;-56
2021/01/09 01:46:49;;;;;;;27.15;18.57;;;;;;;4.65;66.20;100452.70;1705674;84;21915;-55
2021/01/09 01:49:57;;;;;;;26.45;17.87;;;;;;;4.65;66.29;100448.11;1706362;84;21265;-56
2021/01/09 01:53:02;;;;;;;30.27;18.37;;;;;;;4.67;66.24;100439.84;1706245;84;21229;-56
2021/01/09 01:56:12;;;;;;;27.52;17.87;;;;;;;4.62;66.13;100434.83;1706306;84;21228;-55
2021/01/09 01:59:19;;;;;;;26.97;17.82;;;;;;;4.60;66.26;100440.39;1690707;84;21311;-55
2021/01/09 02:02:25;;;;;;;29.30;19.37;;;;;;;4.63;66.22;100438.41;1691465;84;21241;-55
2021/01/09 02:05:32;;;;;;;27.32;17.52;;;;;;;4.66;66.20;100438.13;1690824;84;21627;-56
2021/01/09 02:08:43;;;;;;;30.80;19.40;;;;;;;4.70;66.04;100428.72;1706218;84;21836;-55
2021/01/09 02:12:00;;;;;;;26.00;17.60;;;;;;;4.69;65.89;100426.52;1706307;84;21232;-55
2021/01/09 02:15:06;;;;;;;31.07;18.73;;;;;;;4.67;65.90;100429.86;1706221;84;21276;-55
2021/01/09 02:18:11;;;;;;;29.20;19.05;;;;;;;4.67;66.02;100423.08;1706299;84;21337;-55
2021/01/09 02:21:21;;;;;;;27.15;18.12;;;;;;;4.69;65.97;100418.88;1706261;84;21280;-55
2021/01/09 02:24:27;;;;;;;29.10;19.27;;;;;;;4.68;66.04;100422.08;1706257;84;21745;-55
2021/01/09 02:27:35;;;;;;;24.90;16.65;;;;;;;4.69;66.13;100418.88;1706168;84;21236;-55
2021/01/09 02:30:44;;;;;;;29.70;18.62;;;;;;;4.69;66.17;100423.81;1706283;84;21206;-56
2021/01/09 02:33:50;;;;;;;29.63;17.73;;;;;;;4.70;66.23;100421.45;1706365;84;21253;-55
2021/01/09 02:36:56;;;;;;;28.73;19.23;;;;;;;4.74;66.17;100427.46;1706224;84;21240;-56
2021/01/09 02:40:04;;;;;;;27.93;18.30;;;;;;;4.75;66.16;100428.67;1706231;84;21305;-55
2021/01/09 02:43:10;;;;;;;27.60;18.45;;;;;;;4.78;66.14;100432.95;1706295;84;21236;-55
2021/01/09 02:46:16;;;;;;;28.07;19.30;;;;;;;4.80;66.14;100431.84;1708728;80;21267;-57
2021/01/09 02:49:21;;;;;;;28.23;18.55;;;;;;;4.83;65.95;100435.62;1713314;84;21418;-57
2021/01/09 02:52:28;;;;;;;27.60;18.85;;;;;;;4.81;65.79;100428.12;1713361;84;21228;-57
2021/01/09 02:55:33;;;;;;;25.57;17.10;;;;;;;4.78;65.74;100435.17;1713266;84;21240;-55
2021/01/09 02:58:39;;;;;;;27.05;18.23;;;;;;;4.72;65.73;100434.38;1712953;84;21267;-55
2021/01/09 03:01:44;;;;;;;28.77;19.10;;;;;;;4.69;65.89;100440.56;1713085;84;21722;-55
2021/01/09 03:04:52;;;;;;;29.87;19.57;;;;;;;4.71;66.08;100448.08;1712939;84;21237;-55
2021/01/09 03:07:57;;;;;;;28.87;18.85;;;;;;;4.78;66.09;100445.16;1712998;84;21896;-55
2021/01/09 03:11:02;;;;;;;26.48;18.82;;;;;;;4.78;65.95;100445.16;1713444;84;21376;-56
2021/01/09 03:14:07;;;;;;;25.30;17.85;;;;;;;4.78;65.85;100443.80;1713469;84;21242;-55
2021/01/09 03:17:13;;;;;;;26.65;18.42;;;;;;;4.74;65.83;100439.66;1713346;84;21229;-55
2021/01/09 03:20:20;;;;;;;32.20;18.92;;;;;;;4.69;65.97;100441.44;1713401;84;21324;-55
2021/01/09 03:23:25;;;;;;;27.55;17.57;;;;;;;4.69;66.06;100440.56;1713396;84;21371;-56
2021/01/09 03:26:35;;;;;;;30.45;19.42;;;;;;;4.68;66.12;100448.35;1713346;84;21402;-56
2021/01/09 03:29:40;;;;;;;27.77;18.75;;;;;;;4.69;66.19;100444.63;1713426;84;21255;-57
2021/01/09 03:32:45;;;;;;;30.97;19.65;;;;;;;4.71;66.30;100445.36;1713437;84;21403;-57
2021/01/09 03:35:52;;;;;;;27.42;18.25;;;;;;;4.74;66.42;100442.38;1713572;83;21422;-55
2021/01/09 03:38:58;;;;;;;29.57;18.80;;;;;;;4.76;66.26;100449.36;1713355;84;21220;-57
2021/01/09 03:42:05;;;;;;;30.77;19.80;;;;;;;4.76;66.20;100451.23;1713376;84;21923;-56
2021/01/09 03:45:14;;;;;;;30.25;20.40;;;;;;;4.76;66.15;100452.07;1713533;84;21217;-55
2021/01/09 03:48:19;;;;;;;28.95;18.75;;;;;;;4.75;66.14;100452.21;1713702;82;21283;-55
2021/01/09 03:51:24;;;;;;;33.80;20.35;;;;;;;4.71;66.14;100448.91;1713511;84;21733;-56
2021/01/09 03:54:31;;;;;;;28.35;19.00;;;;;;;4.71;66.28;100444.84;1713546;84;21235;-55
2021/01/09 03:57:39;;;;;;;30.27;19.98;;;;;;;4.73;66.33;100446.92;1713336;84;21244;-55
2021/01/09 04:00:45;;;;;;;30.23;19.82;;;;;;;4.76;66.35;100446.65;1713458;84;21729;-55
2021/01/09 04:03:51;;;;;;;29.20;19.67;;;;;;;4.75;66.20;100448.14;1713393;84;21236;-55
2021/01/09 04:06:58;;;;;;;30.30;20.48;;;;;;;4.73;66.22;100444.70;1712922;84;21209;-55
2021/01/09 04:10:08;;;;;;;29.35;19.90;;;;;;;4.63;66.18;100446.02;1713273;84;21317;-55
2021/01/09 04:13:12;;;;;;;30.12;20.02;;;;;;;4.58;66.42;100448.31;1713536;84;21353;-55
2021/01/09 04:16:18;;;;;;;33.02;19.67;;;;;;;4.52;66.58;100442.05;1713515;84;21231;-56
2021/01/09 04:19:23;;;;;;;31.60;20.57;;;;;;;4.51;66.72;100445.28;1713435;84;21402;-56
2021/01/09 04:22:28;;;;;;;30.27;20.05;;;;;;;4.51;66.89;100432.22;1713468;84;21212;-55
2021/01/09 04:25:34;;;;;;;28.30;19.55;;;;;;;4.54;66.98;100436.02;1713423;84;21229;-55
2021/01/09 04:28:40;;;;;;;32.78;22.15;;;;;;;4.57;67.00;100454.22;1713592;84;21216;-55
2021/01/09 04:31:46;;;;;;;31.17;20.55;;;;;;;4.57;67.07;100450.64;1713454;84;21414;-55
2021/01/09 04:34:52;;;;;;;29.23;20.17;;;;;;;4.57;67.01;100439.31;1713458;84;21244;-56
2021/01/09 04:37:57;;;;;;;28.75;19.17;;;;;;;4.52;66.95;100444.28;1713291;84;21447;-55
2021/01/09 04:41:05;;;;;;;33.05;20.95;;;;;;;4.44;67.04;100443.23;1713449;84;21283;-56
2021/01/09 04:44:12;;;;;;;30.88;19.92;;;;;;;4.37;67.23;100444.78;1713638;84;21197;-56
2021/01/09 04:47:17;;;;;;;29.75;19.15;;;;;;;4.38;67.45;100443.77;1713429;84;21354;-55
2021/01/09 04:50:23;;;;;;;30.48;20.12;;;;;;;4.44;67.59;100449.52;1692870;83;21282;-55
2021/01/09 04:53:29;;;;;;;31.62;19.92;;;;;;;4.49;67.51;100454.53;1713485;84;21765;-55
2021/01/09 04:56:34;;;;;;;31.80;20.55;;;;;;;4.49;67.44;100458.59;1713451;84;21363;-55
2021/01/09 04:59:40;;;;;;;28.65;18.73;;;;;;;4.46;67.47;100454.31;1713410;84;21838;-55
2021/01/09 05:02:47;;;;;;;29.20;18.15;;;;;;;4.46;67.53;100462.45;1713298;83;21225;-55
2021/01/09 05:05:53;;;;;;;28.65;19.23;;;;;;;4.48;67.54;100459.59;1713357;84;21268;-55
2021/01/09 05:09:00;;;;;;;27.80;19.42;;;;;;;4.47;67.56;100457.37;1713364;84;21505;-55
2021/01/09 05:12:06;;;;;;;28.00;18.95;;;;;;;4.45;67.57;100464.80;1713500;83;21362;-55
2021/01/09 05:15:14;;;;;;;27.30;18.40;;;;;;;4.43;67.68;100470.85;1713307;84;21383;-55
2021/01/09 05:18:20;;;;;;;28.98;19.73;;;;;;;4.40;67.73;100473.83;1713422;84;21431;-55
2021/01/09 05:21:25;;;;;;;26.57;18.57;;;;;;;4.39;67.83;100483.45;1713698;84;21227;-55
2021/01/09 05:24:33;;;;;;;29.05;19.20;;;;;;;4.38;67.96;100475.81;1713374;84;21406;-56
2021/01/09 05:27:39;;;;;;;28.15;18.80;;;;;;;4.37;67.94;100471.39;1708880;83;21248;-56
2021/01/09 05:30:44;;;;;;;32.38;19.75;;;;;;;4.38;68.04;100480.36;1695121;83;21231;-55
2021/01/09 05:33:51;;;;;;;29.60;20.20;;;;;;;4.29;67.94;100477.11;1686743;83;21242;-56
2021/01/09 05:36:56;;;;;;;30.48;19.30;;;;;;;4.19;68.12;100475.70;1713987;83;21308;-56
2021/01/09 05:40:05;;;;;;;29.23;18.77;;;;;;;4.12;68.33;100479.08;1714374;83;21228;-56
2021/01/09 05:43:18;;;;;;;28.85;19.00;;;;;;;4.05;68.55;100491.42;1714843;83;21307;-56
2021/01/09 05:46:23;;;;;;;30.20;18.65;;;;;;;4.01;68.63;100489.46;1714322;83;21223;-57
2021/01/09 05:49:31;;;;;;;31.97;20.32;;;;;;;3.99;68.88;100494.17;1687951;82;21769;-55
2021/01/09 05:52:37;;;;;;;29.02;19.12;;;;;;;4.01;68.82;100492.17;1679119;83;21244;-56
2021/01/09 05:55:49;;;;;;;31.55;20.12;;;;;;;4.03;68.89;100487.48;1684411;83;21200;-57
2021/01/09 05:59:01;;;;;;;33.88;21.40;;;;;;;4.09;68.88;100484.77;1713943;83;21722;-56
2021/01/09 06:02:08;;;;;;;28.42;18.50;;;;;;;4.13;68.75;100477.59;1714267;83;21196;-56
2021/01/09 06:05:15;;;;;;;25.57;17.05;;;;;;;4.19;68.54;100469.41;1714670;83;21292;-55
2021/01/09 06:08:25;;;;;;;27.35;18.57;;;;;;;4.17;68.29;100475.48;1714595;83;21224;-57
2021/01/09 06:11:46;;;;;;;25.88;17.95;;;;;;;4.09;68.25;100481.53;1714641;83;21362;-57
2021/01/09 06:14:55;;;;;;;29.87;20.08;;;;;;;4.02;68.28;100485.78;1714851;83;21364;-56
2021/01/09 06:18:01;;;;;;;37.42;23.87;;;;;;;3.97;68.53;100496.15;1714961;83;21247;-56
2021/01/09 06:21:08;;;;;;;34.48;22.05;;;;;;;3.99;68.51;100504.14;1714816;83;21291;-56
2021/01/09 06:24:15;;;;;;;39.20;23.60;;;;;;;4.05;68.50;100514.44;1714284;83;21416;-57
2021/01/09 06:27:25;;;;;;;38.25;22.95;;;;;;;4.07;68.41;100519.23;1714420;83;21344;-56
2021/01/09 06:30:32;;;;;;;35.20;21.33;;;;;;;4.07;68.27;100520.11;1715092;82;21293;-55
2021/01/09 06:33:39;;;;;;;31.10;18.87;;;;;;;4.07;68.06;100522.82;1677987;83;21492;-56
2021/01/09 06:36:44;;;;;;;29.52;18.67;;;;;;;4.02;67.95;100527.77;1715228;83;21209;-56
2021/01/09 06:39:50;;;;;;;30.77;19.05;;;;;;;3.99;67.93;100524.45;1715061;83;21256;-56
2021/01/09 06:42:58;;;;;;;30.37;20.05;;;;;;;4.01;67.99;100527.38;1715059;83;21208;-55
2021/01/09 06:46:04;;;;;;;28.27;17.75;;;;;;;4.07;67.83;100527.37;1715128;83;21189;-56
2021/01/09 06:49:11;;;;;;;30.27;20.55;;;;;;;4.04;67.60;100528.98;1715087;83;21255;-56
2021/01/09 06:52:16;;;;;;;38.92;26.00;;;;;;;3.98;67.42;100518.16;1715738;81;21259;-57
2021/01/09 06:55:22;;;;;;;26.70;16.42;;;;;;;3.93;67.42;100523.11;1715285;83;21200;-57
2021/01/09 06:58:30;;;;;;;24.57;17.10;;;;;;;3.90;67.22;100523.38;1714997;83;21270;-55
2021/01/09 07:01:36;;;;;;;31.23;21.42;;;;;;;3.89;67.35;100527.08;1679455;83;21220;-55
2021/01/09 07:05:00;;;;;;;44.00;32.50;;;;;;;3.84;66.75;100528.44;1669463;83;21349;-55
2021/01/09 07:08:06;;;;;;;31.60;22.73;;;;;;;3.73;67.10;100541.54;1715364;83;21279;-57
2021/01/09 07:11:14;;;;;;;25.30;17.10;;;;;;;3.70;67.26;100539.09;1686311;83;21413;-56
2021/01/09 07:14:26;;;;;;;26.77;17.32;;;;;;;3.71;67.27;100544.86;1714904;83;21228;-55
2021/01/09 07:17:34;;;;;;;27.80;19.73;;;;;;;3.75;67.21;100551.76;1715209;83;21185;-55
2021/01/09 07:20:52;;;;;;;26.73;18.42;;;;;;;3.80;67.07;100554.07;1715106;83;21239;-56
2021/01/09 07:23:59;;;;;;;28.57;18.48;;;;;;;3.84;66.92;100560.94;1678090;83;21417;-56
2021/01/09 07:27:05;;;;;;;30.77;19.05;;;;;;;3.88;66.98;100559.22;1715192;83;21188;-55
2021/01/09 07:30:25;;;;;;;89.62;63.75;;;;;;;4.02;66.98;100565.68;1678069;83;22093;-55
2021/01/09 07:33:31;;;;;;;66.25;41.10;;;;;;;4.11;66.75;100570.30;1715136;83;21327;-55
2021/01/09 07:36:37;;;;;;;41.20;26.37;;;;;;;4.22;66.59;100574.31;1661104;83;21320;-56
2021/01/09 07:39:47;;;;;;;29.48;21.85;;;;;;;4.26;66.29;100576.27;1695293;83;21386;-55
2021/01/09 07:42:52;;;;;;;28.30;18.90;;;;;;;4.23;66.04;100581.44;1715197;83;21236;-56
2021/01/09 07:45:58;;;;;;;29.72;20.12;;;;;;;4.21;66.01;100580.73;1715239;83;21240;-56
2021/01/09 07:49:08;;;;;;;32.20;19.07;;;;;;;4.22;65.86;100577.50;1715171;83;21240;-55
2021/01/09 07:52:15;;;;;;;23.92;16.75;;;;;;;4.24;65.82;100567.41;1711819;81;21248;-55
2021/01/09 07:55:25;;;;;;;25.80;17.07;;;;;;;4.27;65.46;100582.05;1715278;83;21260;-56
2021/01/09 07:58:52;;;;;;;22.22;15.43;;;;;;;4.25;65.35;100581.34;1715266;83;21221;-55
2021/01/09 08:01:58;;;;;;;23.25;16.12;;;;;;;4.22;65.21;100574.31;1715085;83;21213;-56
2021/01/09 08:05:14;;;;;;;26.55;17.85;;;;;;;4.17;65.00;100579.26;1715117;83;21215;-56
2021/01/09 08:08:19;;;;;;;37.98;22.70;;;;;;;4.10;64.92;100580.78;1715046;83;21243;-56
2021/01/09 08:11:25;;;;;;;24.82;16.62;;;;;;;3.98;64.85;100586.39;1715182;83;21193;-56
2021/01/09 08:14:33;;;;;;;37.90;23.02;;;;;;;3.82;64.91;100583.24;1714894;83;21453;-56
2021/01/09 08:17:38;;;;;;;34.08;19.82;;;;;;;3.74;65.20;100577.60;1672602;83;21299;-55
2021/01/09 08:20:43;;;;;;;34.78;20.62;;;;;;;3.75;65.38;100582.89;1714964;83;21275;-56
2021/01/09 08:23:51;;;;;;;25.32;16.90;;;;;;;3.80;65.43;100587.43;1714468;83;21244;-55
2021/01/09 08:26:59;;;;;;;31.42;18.12;;;;;;;3.84;65.44;100582.11;1714504;83;21212;-55
2021/01/09 08:30:05;;;;;;;30.12;16.57;;;;;;;3.91;65.26;100565.73;1714595;83;21744;-55
2021/01/09 08:33:20;;;;;;;22.20;14.25;;;;;;;3.92;65.13;100571.98;1714976;83;21239;-55
2021/01/09 08:36:28;;;;;;;22.67;15.05;;;;;;;3.94;64.84;100569.53;1715123;83;21208;-55
2021/01/09 08:39:35;;;;;;;19.62;13.83;;;;;;;3.95;64.72;100564.95;1714984;83;21236;-54
2021/01/09 08:42:42;;;;;;;20.95;14.33;;;;;;;4.01;64.49;100559.88;1715003;83;21340;-55
2021/01/09 08:45:55;;;;;;;18.57;12.40;;;;;;;4.10;64.04;100560.47;1715158;83;21275;-56
2021/01/09 08:49:04;;;;;;;19.23;12.05;;;;;;;4.17;63.32;100563.52;1714664;83;21261;-55
2021/01/09 08:52:15;;;;;;;20.82;13.83;;;;;;;4.13;62.99;100549.86;1713104;84;21233;-56
2021/01/09 08:55:20;;;;;;;23.00;14.13;;;;;;;4.17;63.02;100552.17;1692386;85;21381;-55
2021/01/09 08:58:26;;;;;;;19.23;12.35;;;;;;;4.21;62.30;100550.06;1692255;85;21392;-56
2021/01/09 09:01:46;;;;;;;19.55;13.30;;;;;;;4.19;61.96;100555.61;1691997;83;21249;-56
2021/01/09 09:04:51;;;;;;;22.15;13.65;;;;;;;4.16;61.84;100544.17;1692595;84;21897;-55
2021/01/09 09:07:58;;;;;;;18.20;11.73;;;;;;;4.17;61.90;100529.14;1692135;85;21285;-56
2021/01/09 09:11:05;;;;;;;21.05;13.40;;;;;;;4.25;61.68;100536.11;1692286;85;21936;-55
2021/01/09 09:14:18;;;;;;;16.42;11.85;;;;;;;4.33;61.42;100527.31;1692305;85;21364;-55
2021/01/09 09:17:25;;;;;;;12.60;9.15;;;;;;;4.44;61.44;100528.11;1692456;85;21246;-56
2021/01/09 09:20:32;;;;;;;16.05;10.70;;;;;;;4.53;60.25;100523.23;1638189;84;21285;-57
2021/01/09 09:23:36;;;;;;;17.23;12.18;;;;;;;4.55;59.25;100523.97;1691636;85;21380;-57
2021/01/09 09:26:46;;;;;;;19.52;12.47;;;;;;;4.53;59.24;100515.10;1691774;84;21356;-56
2021/01/09 09:29:50;;;;;;;18.42;11.00;;;;;;;4.56;59.55;100509.44;1693286;83;21214;-56
2021/01/09 09:32:56;;;;;;;16.27;11.53;;;;;;;4.61;59.39;100513.09;1692724;83;21363;-56
2021/01/09 09:36:15;;;;;;;14.73;11.03;;;;;;;4.68;59.06;100518.33;1693467;84;21861;-56
2021/01/09 09:39:31;;;;;;;19.35;12.90;;;;;;;4.75;59.11;100499.66;1693603;83;21747;-56
2021/01/09 09:42:36;;;;;;;22.55;14.43;;;;;;;4.88;58.81;100505.72;1694148;84;21786;-56
2021/01/09 09:45:43;;;;;;;25.05;15.32;;;;;;;4.94;58.24;100501.09;1693717;84;21425;-56
2021/01/09 09:48:48;;;;;;;26.82;16.57;;;;;;;4.99;57.55;100512.40;1693617;83;21379;-56
2021/01/09 09:51:54;;;;;;;19.20;12.93;;;;;;;5.00;57.42;100508.68;1693788;84;21359;-55
2021/01/09 09:55:12;;;;;;;19.37;14.00;;;;;;;4.99;57.46;100514.63;1689926;81;21244;-56
2021/01/09 09:58:19;;;;;;;20.82;13.90;;;;;;;4.97;57.36;100500.82;1683447;84;21406;-56
2021/01/09 10:01:32;;;;;;;20.05;14.98;;;;;;;4.92;57.51;100501.72;1683941;85;21761;-57
2021/01/09 10:04:37;;;;;;;24.02;14.50;;;;;;;4.94;57.92;100491.61;1693728;84;21825;-56
2021/01/09 10:07:45;;;;;;;22.20;14.07;;;;;;;5.01;58.35;100494.14;1709773;84;21279;-56
2021/01/09 10:10:53;;;;;;;19.98;12.50;;;;;;;5.12;58.53;100492.67;1710694;83;21201;-56
2021/01/09 10:13:58;;;;;;;24.15;15.55;;;;;;;5.18;57.91;100494.34;1711176;83;21244;-57
2021/01/09 10:17:07;;;;;;;23.90;14.85;;;;;;;5.13;58.08;100497.09;1710496;83;21287;-57
2021/01/09 10:20:15;;;;;;;21.00;13.58;;;;;;;5.12;58.23;100489.96;1709968;83;21268;-57
2021/01/09 10:23:20;;;;;;;20.85;13.93;;;;;;;5.18;58.22;100511.11;1709875;82;21221;-57
2021/01/09 10:26:34;;;;;;;21.30;13.85;;;;;;;5.17;58.39;100502.09;1710792;83;21228;-57
2021/01/09 10:29:41;;;;;;;33.08;20.62;;;;;;;5.17;58.58;100501.27;1711077;82;21302;-56
2021/01/09 10:32:45;;;;;;;40.10;22.82;;;;;;;5.19;58.98;100501.95;1710841;82;21224;-56
2021/01/09 10:35:55;;;;;;;30.90;17.20;;;;;;;5.19;58.68;100489.75;1701336;83;21216;-56
2021/01/09 10:39:00;;;;;;;29.07;19.73;;;;;;;5.15;58.82;100499.18;1710583;84;21543;-56
2021/01/09 10:42:06;;;;;;;29.70;18.82;;;;;;;5.12;58.98;100499.45;1711552;83;21212;-57
2021/01/09 10:45:12;;;;;;;26.80;16.95;;;;;;;5.07;59.02;100491.73;1711330;83;21288;-56
2021/01/09 10:48:17;;;;;;;27.65;18.37;;;;;;;5.02;59.44;100491.29;1711049;83;21235;-56
2021/01/09 10:51:24;;;;;;;25.90;17.60;;;;;;;5.09;59.86;100499.73;1711329;83;21572;-55
2021/01/09 10:54:29;;;;;;;32.93;19.40;;;;;;;5.11;60.10;100487.73;1690748;84;21300;-56
2021/01/09 10:57:35;;;;;;;30.97;20.82;;;;;;;5.11;60.28;100487.73;1712196;84;21197;-56
2021/01/09 11:00:40;;;;;;;29.92;20.65;;;;;;;5.14;60.37;100489.33;1711944;83;21259;-56
2021/01/09 11:03:50;;;;;;;32.55;22.37;;;;;;;5.10;60.47;100489.23;1712466;82;21228;-56
2021/01/09 11:06:55;;;;;;;24.00;15.75;;;;;;;5.14;60.81;100493.41;1711810;83;21861;-56
2021/01/09 11:10:00;;;;;;;34.25;21.75;;;;;;;5.20;60.60;100488.25;1712381;84;21232;-56
2021/01/09 11:13:05;;;;;;;30.23;22.07;;;;;;;5.18;60.64;100496.19;1712284;84;21291;-57
2021/01/09 11:16:12;;;;;;;31.62;20.82;;;;;;;5.23;60.75;100491.20;1712240;84;21614;-56
2021/01/09 11:19:18;;;;;;;25.62;17.10;;;;;;;5.31;60.52;100492.72;1712388;84;21304;-57
2021/01/09 11:22:24;;;;;;;23.40;15.95;;;;;;;5.38;60.39;100492.02;1712405;83;21746;-56
2021/01/09 11:25:30;;;;;;;24.50;16.75;;;;;;;5.38;60.23;100488.43;1712231;84;21213;-55
2021/01/09 11:28:36;;;;;;;26.25;18.20;;;;;;;5.27;60.05;100496.70;1713851;82;21255;-56
2021/01/09 11:31:40;;;;;;;27.85;17.73;;;;;;;5.17;60.29;100502.62;1689658;85;21332;-56
2021/01/09 11:34:46;;;;;;;29.15;19.10;;;;;;;5.04;60.42;100503.36;1717862;83;21224;-56
2021/01/09 11:37:51;;;;;;;27.95;17.27;;;;;;;4.99;60.86;100499.70;1711896;82;21318;-56
2021/01/09 11:40:58;;;;;;;27.82;18.17;;;;;;;4.98;61.29;100495.26;1690186;85;21178;-55
2021/01/09 11:44:04;;;;;;;27.15;18.40;;;;;;;5.00;61.40;100500.55;1717770;82;21598;-55
2021/01/09 11:47:09;;;;;;;30.50;19.10;;;;;;;4.95;61.42;100496.05;1691369;85;21170;-56
2021/01/09 11:50:19;;;;;;;33.00;21.62;;;;;;;4.95;61.70;100498.25;1711044;83;21765;-55
2021/01/09 11:53:24;;;;;;;33.73;20.85;;;;;;;4.96;61.66;100500.47;1710777;84;21272;-56
2021/01/09 11:56:30;;;;;;;33.73;21.27;;;;;;;4.92;61.77;100494.94;1704571;82;21823;-56
2021/01/09 11:59:37;;;;;;;40.25;24.63;;;;;;;4.91;61.93;100504.95;1691564;83;21392;-56
2021/01/09 12:02:41;;;;;;;32.58;20.88;;;;;;;4.90;62.19;100507.28;1717135;82;21324;-56
2021/01/09 12:05:47;;;;;;;31.70;21.17;;;;;;;4.92;62.21;100508.02;1715731;83;21453;-55
2021/01/09 12:08:53;;;;;;;36.30;24.72;;;;;;;4.86;62.06;100522.62;1661122;85;21827;-56
2021/01/09 12:12:02;;;;;;;40.05;28.00;;;;;;;4.82;62.37;100516.60;1718011;83;21946;-56
2021/01/09 12:15:09;;;;;;;30.45;19.98;;;;;;;4.84;62.57;100528.67;1717105;83;21374;-56
2021/01/09 12:18:14;;;;;;;31.12;21.90;;;;;;;4.82;62.44;100532.88;1663717;85;21372;-56
2021/01/09 12:21:22;;;;;;;63.50;34.60;;;;;;;4.85;62.52;100541.25;1663123;86;21965;-55
2021/01/09 12:24:27;;;;;;;34.20;21.55;;;;;;;4.88;62.53;100538.27;1716526;82;21278;-56
2021/01/09 12:27:32;;;;;;;29.42;19.98;;;;;;;4.89;62.19;100546.27;1687623;85;21387;-57
2021/01/09 12:30:38;;;;;;;31.73;20.25;;;;;;;4.82;62.03;100540.17;1667888;85;21293;-56
2021/01/09 12:33:45;;;;;;;29.63;20.23;;;;;;;4.74;62.30;100542.70;1715297;83;21817;-56
2021/01/09 12:36:51;;;;;;;28.70;19.60;;;;;;;4.73;62.46;100546.38;1690585;84;21237;-56
2021/01/09 12:39:56;;;;;;;30.82;21.95;;;;;;;4.72;62.45;100549.61;1714892;83;21602;-56
2021/01/09 12:43:01;;;;;;;33.02;21.60;;;;;;;4.74;62.62;100550.31;1689669;85;21403;-56
2021/01/09 12:46:06;;;;;;;32.70;22.37;;;;;;;4.75;62.64;100552.54;1717365;83;21926;-56
2021/01/09 12:49:12;;;;;;;36.30;23.55;;;;;;;4.81;62.90;100550.15;1691706;83;21372;-55
2021/01/09 12:52:17;;;;;;;30.80;20.65;;;;;;;4.87;62.79;100554.19;1714606;83;21791;-56
2021/01/09 12:55:23;;;;;;;37.90;25.25;;;;;;;4.86;62.64;100559.23;1690837;85;21229;-56
2021/01/09 12:58:27;;;;;;;30.12;20.08;;;;;;;4.84;62.80;100559.37;1713779;82;21232;-56
2021/01/09 13:01:44;;;;;;;38.00;23.00;;;;;;;4.84;62.74;100559.86;1657750;84;21233;-55
2021/01/09 13:04:50;;;;;;;37.85;24.30;;;;;;;4.77;62.78;100556.85;1709901;82;21228;-55
2021/01/09 13:07:55;;;;;;;35.03;21.80;;;;;;;4.69;63.05;100556.66;1688032;83;22342;-56
2021/01/09 13:11:00;;;;;;;43.30;25.80;;;;;;;4.57;63.07;100561.30;1708326;83;21284;-55
2021/01/09 13:14:05;;;;;;;51.70;28.98;;;;;;;4.48;63.25;100552.63;1676234;83;21249;-55
2021/01/09 13:17:12;;;;;;;58.55;33.02;;;;;;;4.45;63.57;100566.92;1707699;83;21212;-56
2021/01/09 13:20:18;;;;;;;57.93;31.60;;;;;;;4.43;63.68;100564.35;1691720;85;21376;-56
2021/01/09 13:23:23;;;;;;;40.88;25.20;;;;;;;4.43;63.93;100564.35;1710210;83;21232;-56
2021/01/09 13:26:29;;;;;;;47.95;30.15;;;;;;;4.49;64.19;100571.94;1710305;84;21310;-55
2021/01/09 13:29:36;;;;;;;51.75;31.02;;;;;;;4.53;64.34;100580.16;1711055;83;21291;-55
2021/01/09 13:32:43;;;;;;;39.63;24.45;;;;;;;4.55;64.39;100576.83;1676345;83;21234;-55
2021/01/09 13:35:49;;;;;;;39.78;24.75;;;;;;;4.50;63.95;100583.14;1710879;83;21205;-56
2021/01/09 13:38:55;;;;;;;43.55;26.85;;;;;;;4.35;63.52;100575.47;1680527;85;21743;-56
2021/01/09 13:42:00;;;;;;;40.55;23.83;;;;;;;4.19;62.85;100582.70;1699956;84;21272;-56
2021/01/09 13:45:05;;;;;;;29.75;20.02;;;;;;;4.07;62.52;100585.12;1678893;85;21750;-56
2021/01/09 13:48:11;;;;;;;32.13;20.00;;;;;;;3.98;62.04;100586.39;1709058;83;21248;-56
2021/01/09 13:51:17;;;;;;;34.45;20.02;;;;;;;3.92;61.85;100580.98;1659894;86;21218;-57
2021/01/09 13:54:22;;;;;;;33.20;21.20;;;;;;;3.86;61.65;100584.20;1710047;82;21251;-56
2021/01/09 13:57:29;;;;;;;28.85;19.65;;;;;;;3.86;61.43;100592.81;1690337;85;21380;-56
2021/01/09 14:00:34;;;;;;;45.03;30.92;;;;;;;3.86;61.54;100595.52;1711068;81;21239;-57
2021/01/09 14:03:43;;;;;;;51.68;32.17;;;;;;;3.90;61.63;100596.48;1689753;83;21393;-56
2021/01/09 14:06:51;;;;;;;58.98;36.08;;;;;;;3.93;61.74;100593.52;1707203;84;21228;-56
2021/01/09 14:09:57;;;;;;;47.23;33.18;;;;;;;3.95;62.01;100603.73;1708501;83;21212;-56
2021/01/09 14:13:02;;;;;;;48.00;30.90;;;;;;;4.02;62.35;100609.50;1650147;86;21420;-55
2021/01/09 14:16:09;;;;;;;49.95;32.63;;;;;;;4.06;62.66;100602.85;1707645;84;21216;-56
2021/01/09 14:19:15;;;;;;;56.80;35.85;;;;;;;4.11;62.97;100608.71;1709789;83;21769;-56